sensor_id;sensor_type;location;lat;lon;timestamp;P1;durP1;ratioP1;P2;durP2;ratioP2
6344;SDS011;3205;42.666;23.264;2023-02-28T00:01:08;28.13;;;16.13;;
6344;SDS011;3205;42.666;23.264;2023-02-28T00:03:35;32.63;;;17.90;;
6344;SDS011;3205;42.666;23.264;2023-02-28T00:06:01;33.70;;;16.93;;
6344;SDS011;3205;42.666;23.264;2023-02-28T00:08:28;37.53;;;17.03;;
6344;SDS011;3205;42.666;23.264;2023-02-28T00:10:54;33.63;;;16.77;;
6344;SDS011;3205;42.666;23.264;2023-02-28T00:13:20;30.97;;;15.83;;
6344;SDS011;3205;42.666;23.264;2023-02-28T00:15:47;31.07;;;16.83;;
6344;SDS011;3205;42.666;23.264;2023-02-28T00:18:23;25.63;;;13.77;;
6344;SDS011;3205;42.666;23.264;2023-02-28T00:20:49;33.17;;;15.23;;
6344;SDS011;3205;42.666;23.264;2023-02-28T00:23:15;32.57;;;14.70;;
6344;SDS011;3205;42.666;23.264;2023-02-28T00:25:41;32.50;;;17.00;;
6344;SDS011;3205;42.666;23.264;2023-02-28T00:28:07;37.67;;;16.73;;
6344;SDS011;3205;42.666;23.264;2023-02-28T00:30:33;29.33;;;14.07;;
6344;SDS011;3205;42.666;23.264;2023-02-28T00:33:00;24.37;;;12.97;;
6344;SDS011;3205;42.666;23.264;2023-02-28T00:35:26;19.73;;;11.33;;
6344;SDS011;3205;42.666;23.264;2023-02-28T00:37:52;22.90;;;12.37;;
6344;SDS011;3205;42.666;23.264;2023-02-28T00:40:18;27.80;;;13.30;;
6344;SDS011;3205;42.666;23.264;2023-02-28T00:42:45;22.50;;;13.17;;
6344;SDS011;3205;42.666;23.264;2023-02-28T00:45:11;27.13;;;14.13;;
6344;SDS011;3205;42.666;23.264;2023-02-28T00:47:37;29.60;;;14.27;;
6344;SDS011;3205;42.666;23.264;2023-02-28T00:50:04;27.27;;;14.20;;
6344;SDS011;3205;42.666;23.264;2023-02-28T00:52:31;32.43;;;16.60;;
6344;SDS011;3205;42.666;23.264;2023-02-28T00:54:57;33.43;;;16.60;;
6344;SDS011;3205;42.666;23.264;2023-02-28T00:57:24;28.23;;;14.80;;
6344;SDS011;3205;42.666;23.264;2023-02-28T00:59:50;28.43;;;15.03;;
6344;SDS011;3205;42.666;23.264;2023-02-28T01:02:16;27.73;;;16.03;;
6344;SDS011;3205;42.666;23.264;2023-02-28T01:04:43;33.73;;;17.77;;
6344;SDS011;3205;42.666;23.264;2023-02-28T01:07:09;38.03;;;19.53;;
6344;SDS011;3205;42.666;23.264;2023-02-28T01:09:36;39.50;;;20.87;;
6344;SDS011;3205;42.666;23.264;2023-02-28T01:12:02;39.97;;;20.27;;
6344;SDS011;3205;42.666;23.264;2023-02-28T01:14:32;49.43;;;22.70;;
6344;SDS011;3205;42.666;23.264;2023-02-28T01:16:58;54.17;;;23.63;;
6344;SDS011;3205;42.666;23.264;2023-02-28T01:19:24;52.97;;;23.03;;
6344;SDS011;3205;42.666;23.264;2023-02-28T01:21:50;51.90;;;23.13;;
6344;SDS011;3205;42.666;23.264;2023-02-28T01:24:17;49.03;;;24.30;;
6344;SDS011;3205;42.666;23.264;2023-02-28T01:26:43;47.00;;;24.40;;
6344;SDS011;3205;42.666;23.264;2023-02-28T01:29:09;57.47;;;25.07;;
6344;SDS011;3205;42.666;23.264;2023-02-28T01:31:35;53.13;;;23.43;;
6344;SDS011;3205;42.666;23.264;2023-02-28T01:34:02;50.07;;;23.90;;
6344;SDS011;3205;42.666;23.264;2023-02-28T01:36:28;56.50;;;25.50;;
6344;SDS011;3205;42.666;23.264;2023-02-28T01:38:55;53.57;;;25.00;;
6344;SDS011;3205;42.666;23.264;2023-02-28T01:41:22;59.73;;;27.43;;
6344;SDS011;3205;42.666;23.264;2023-02-28T01:43:57;57.97;;;26.70;;
6344;SDS011;3205;42.666;23.264;2023-02-28T01:46:28;58.33;;;26.17;;
6344;SDS011;3205;42.666;23.264;2023-02-28T01:48:55;60.57;;;26.63;;
6344;SDS011;3205;42.666;23.264;2023-02-28T01:51:28;56.77;;;26.00;;
6344;SDS011;3205;42.666;23.264;2023-02-28T01:54:01;57.47;;;24.73;;
6344;SDS011;3205;42.666;23.264;2023-02-28T01:56:32;57.37;;;25.30;;
6344;SDS011;3205;42.666;23.264;2023-02-28T01:59:02;56.50;;;24.80;;
6344;SDS011;3205;42.666;23.264;2023-02-28T02:01:28;62.93;;;25.07;;
6344;SDS011;3205;42.666;23.264;2023-02-28T02:03:56;61.13;;;25.33;;
6344;SDS011;3205;42.666;23.264;2023-02-28T02:06:26;57.17;;;24.57;;
6344;SDS011;3205;42.666;23.264;2023-02-28T02:08:55;62.10;;;25.43;;
6344;SDS011;3205;42.666;23.264;2023-02-28T02:11:22;70.23;;;25.67;;
6344;SDS011;3205;42.666;23.264;2023-02-28T02:13:56;67.67;;;26.73;;
6344;SDS011;3205;42.666;23.264;2023-02-28T02:16:39;61.97;;;26.27;;
6344;SDS011;3205;42.666;23.264;2023-02-28T02:19:15;61.10;;;27.73;;
6344;SDS011;3205;42.666;23.264;2023-02-28T02:22:12;63.87;;;26.60;;
6344;SDS011;3205;42.666;23.264;2023-02-28T02:25:04;71.90;;;27.40;;
6344;SDS011;3205;42.666;23.264;2023-02-28T02:27:49;92.30;;;27.03;;
6344;SDS011;3205;42.666;23.264;2023-02-28T02:30:42;58.60;;;26.40;;
6344;SDS011;3205;42.666;23.264;2023-02-28T02:36:17;73.27;;;25.80;;
6344;SDS011;3205;42.666;23.264;2023-02-28T02:38:49;60.60;;;26.50;;
6344;SDS011;3205;42.666;23.264;2023-02-28T02:41:23;74.27;;;27.93;;
6344;SDS011;3205;42.666;23.264;2023-02-28T02:43:54;65.83;;;26.97;;
6344;SDS011;3205;42.666;23.264;2023-02-28T02:46:28;64.30;;;25.53;;
6344;SDS011;3205;42.666;23.264;2023-02-28T02:48:58;70.40;;;27.00;;
6344;SDS011;3205;42.666;23.264;2023-02-28T02:51:29;64.20;;;25.97;;
6344;SDS011;3205;42.666;23.264;2023-02-28T02:53:59;62.33;;;26.50;;
6344;SDS011;3205;42.666;23.264;2023-02-28T02:56:31;65.97;;;24.37;;
6344;SDS011;3205;42.666;23.264;2023-02-28T02:59:00;60.33;;;23.97;;
6344;SDS011;3205;42.666;23.264;2023-02-28T03:01:28;61.10;;;24.60;;
6344;SDS011;3205;42.666;23.264;2023-02-28T03:03:57;61.07;;;25.13;;
6344;SDS011;3205;42.666;23.264;2023-02-28T03:06:26;62.50;;;22.37;;
6344;SDS011;3205;42.666;23.264;2023-02-28T03:08:53;59.93;;;22.83;;
6344;SDS011;3205;42.666;23.264;2023-02-28T03:11:19;66.93;;;23.67;;
6344;SDS011;3205;42.666;23.264;2023-02-28T03:13:54;66.17;;;24.33;;
6344;SDS011;3205;42.666;23.264;2023-02-28T03:16:45;61.87;;;24.07;;
6344;SDS011;3205;42.666;23.264;2023-02-28T03:19:25;59.97;;;24.13;;
6344;SDS011;3205;42.666;23.264;2023-02-28T03:22:03;82.83;;;26.17;;
6344;SDS011;3205;42.666;23.264;2023-02-28T03:24:45;66.33;;;27.10;;
6344;SDS011;3205;42.666;23.264;2023-02-28T03:27:21;130.00;;;25.30;;
6344;SDS011;3205;42.666;23.264;2023-02-28T03:29:51;117.37;;;23.30;;
6344;SDS011;3205;42.666;23.264;2023-02-28T03:32:27;105.83;;;24.57;;
6344;SDS011;3205;42.666;23.264;2023-02-28T03:34:59;81.53;;;24.43;;
6344;SDS011;3205;42.666;23.264;2023-02-28T03:37:31;84.30;;;25.80;;
6344;SDS011;3205;42.666;23.264;2023-02-28T03:40:03;72.63;;;24.87;;
6344;SDS011;3205;42.666;23.264;2023-02-28T03:42:34;101.47;;;25.67;;
6344;SDS011;3205;42.666;23.264;2023-02-28T03:45:02;109.47;;;28.20;;
6344;SDS011;3205;42.666;23.264;2023-02-28T03:47:36;81.07;;;27.03;;
6344;SDS011;3205;42.666;23.264;2023-02-28T03:50:05;61.73;;;25.67;;
6344;SDS011;3205;42.666;23.264;2023-02-28T03:52:36;69.93;;;26.67;;
6344;SDS011;3205;42.666;23.264;2023-02-28T03:55:11;75.67;;;29.00;;
6344;SDS011;3205;42.666;23.264;2023-02-28T03:57:41;86.90;;;29.20;;
6344;SDS011;3205;42.666;23.264;2023-02-28T04:00:14;79.57;;;29.97;;
6344;SDS011;3205;42.666;23.264;2023-02-28T04:02:44;90.57;;;31.63;;
6344;SDS011;3205;42.666;23.264;2023-02-28T04:05:10;79.63;;;30.17;;
6344;SDS011;3205;42.666;23.264;2023-02-28T04:07:36;95.63;;;31.47;;
6344;SDS011;3205;42.666;23.264;2023-02-28T04:10:03;79.87;;;29.77;;
6344;SDS011;3205;42.666;23.264;2023-02-28T04:12:30;101.10;;;30.10;;
6344;SDS011;3205;42.666;23.264;2023-02-28T04:14:56;83.10;;;29.27;;
6344;SDS011;3205;42.666;23.264;2023-02-28T04:17:22;87.33;;;29.97;;
6344;SDS011;3205;42.666;23.264;2023-02-28T04:19:49;84.67;;;30.20;;
6344;SDS011;3205;42.666;23.264;2023-02-28T04:22:15;77.87;;;28.40;;
6344;SDS011;3205;42.666;23.264;2023-02-28T04:24:42;85.40;;;29.67;;
6344;SDS011;3205;42.666;23.264;2023-02-28T04:27:08;86.53;;;30.63;;
6344;SDS011;3205;42.666;23.264;2023-02-28T04:29:35;72.33;;;27.70;;
6344;SDS011;3205;42.666;23.264;2023-02-28T04:32:02;57.63;;;23.03;;
6344;SDS011;3205;42.666;23.264;2023-02-28T04:34:30;60.87;;;25.30;;
6344;SDS011;3205;42.666;23.264;2023-02-28T04:36:57;67.70;;;26.10;;
6344;SDS011;3205;42.666;23.264;2023-02-28T04:39:25;58.33;;;25.57;;
6344;SDS011;3205;42.666;23.264;2023-02-28T04:41:51;71.10;;;26.20;;
6344;SDS011;3205;42.666;23.264;2023-02-28T04:44:17;86.50;;;28.83;;
6344;SDS011;3205;42.666;23.264;2023-02-28T04:46:44;78.17;;;29.30;;
6344;SDS011;3205;42.666;23.264;2023-02-28T04:49:10;80.00;;;30.43;;
6344;SDS011;3205;42.666;23.264;2023-02-28T04:51:38;84.47;;;31.60;;
6344;SDS011;3205;42.666;23.264;2023-02-28T04:54:04;93.20;;;31.37;;
6344;SDS011;3205;42.666;23.264;2023-02-28T04:56:30;88.47;;;31.50;;
6344;SDS011;3205;42.666;23.264;2023-02-28T04:58:56;88.70;;;29.63;;
6344;SDS011;3205;42.666;23.264;2023-02-28T05:01:23;76.10;;;27.07;;
6344;SDS011;3205;42.666;23.264;2023-02-28T05:03:52;75.03;;;29.80;;
6344;SDS011;3205;42.666;23.264;2023-02-28T05:06:19;74.37;;;27.37;;
6344;SDS011;3205;42.666;23.264;2023-02-28T05:08:46;73.07;;;24.90;;
6344;SDS011;3205;42.666;23.264;2023-02-28T05:11:18;56.87;;;23.43;;
6344;SDS011;3205;42.666;23.264;2023-02-28T05:13:46;61.37;;;23.70;;
6344;SDS011;3205;42.666;23.264;2023-02-28T05:16:13;50.87;;;22.40;;
6344;SDS011;3205;42.666;23.264;2023-02-28T05:18:39;46.63;;;19.97;;
6344;SDS011;3205;42.666;23.264;2023-02-28T05:21:12;59.13;;;24.27;;
6344;SDS011;3205;42.666;23.264;2023-02-28T05:23:49;70.80;;;26.47;;
6344;SDS011;3205;42.666;23.264;2023-02-28T05:26:15;82.50;;;26.37;;
6344;SDS011;3205;42.666;23.264;2023-02-28T05:28:41;70.63;;;27.40;;
6344;SDS011;3205;42.666;23.264;2023-02-28T05:31:07;91.87;;;29.50;;
6344;SDS011;3205;42.666;23.264;2023-02-28T05:33:36;81.00;;;29.93;;
6344;SDS011;3205;42.666;23.264;2023-02-28T05:36:02;81.30;;;29.60;;
6344;SDS011;3205;42.666;23.264;2023-02-28T05:38:29;83.27;;;30.50;;
6344;SDS011;3205;42.666;23.264;2023-02-28T05:40:55;80.77;;;28.33;;
6344;SDS011;3205;42.666;23.264;2023-02-28T05:43:21;66.00;;;27.30;;
6344;SDS011;3205;42.666;23.264;2023-02-28T05:45:47;68.30;;;27.10;;
6344;SDS011;3205;42.666;23.264;2023-02-28T05:48:13;64.97;;;26.10;;
6344;SDS011;3205;42.666;23.264;2023-02-28T05:50:40;67.47;;;25.70;;
6344;SDS011;3205;42.666;23.264;2023-02-28T05:53:07;63.40;;;25.40;;
6344;SDS011;3205;42.666;23.264;2023-02-28T05:55:34;60.53;;;24.67;;
6344;SDS011;3205;42.666;23.264;2023-02-28T05:58:02;44.93;;;20.70;;
6344;SDS011;3205;42.666;23.264;2023-02-28T06:00:28;44.27;;;19.30;;
6344;SDS011;3205;42.666;23.264;2023-02-28T06:02:54;41.13;;;20.20;;
6344;SDS011;3205;42.666;23.264;2023-02-28T06:05:23;42.03;;;18.13;;
6344;SDS011;3205;42.666;23.264;2023-02-28T06:07:49;42.70;;;18.93;;
6344;SDS011;3205;42.666;23.264;2023-02-28T06:10:15;43.77;;;19.07;;
6344;SDS011;3205;42.666;23.264;2023-02-28T06:12:42;46.60;;;19.47;;
6344;SDS011;3205;42.666;23.264;2023-02-28T06:15:10;40.43;;;18.70;;
6344;SDS011;3205;42.666;23.264;2023-02-28T06:17:38;45.93;;;19.80;;
6344;SDS011;3205;42.666;23.264;2023-02-28T06:20:05;43.20;;;19.37;;
6344;SDS011;3205;42.666;23.264;2023-02-28T06:22:32;45.07;;;19.70;;
6344;SDS011;3205;42.666;23.264;2023-02-28T06:24:58;48.07;;;21.50;;
6344;SDS011;3205;42.666;23.264;2023-02-28T06:27:24;51.37;;;21.53;;
6344;SDS011;3205;42.666;23.264;2023-02-28T06:29:53;44.27;;;21.27;;
6344;SDS011;3205;42.666;23.264;2023-02-28T06:32:19;47.33;;;21.80;;
6344;SDS011;3205;42.666;23.264;2023-02-28T06:34:45;46.47;;;21.10;;
6344;SDS011;3205;42.666;23.264;2023-02-28T06:37:11;50.23;;;22.17;;
6344;SDS011;3205;42.666;23.264;2023-02-28T06:39:38;43.57;;;20.30;;
6344;SDS011;3205;42.666;23.264;2023-02-28T06:42:04;45.17;;;20.67;;
6344;SDS011;3205;42.666;23.264;2023-02-28T06:44:30;45.53;;;21.53;;
6344;SDS011;3205;42.666;23.264;2023-02-28T06:47:01;49.30;;;22.47;;
6344;SDS011;3205;42.666;23.264;2023-02-28T06:49:28;60.40;;;23.03;;
6344;SDS011;3205;42.666;23.264;2023-02-28T06:51:54;65.63;;;26.23;;
6344;SDS011;3205;42.666;23.264;2023-02-28T06:54:20;75.93;;;29.13;;
6344;SDS011;3205;42.666;23.264;2023-02-28T06:56:46;81.90;;;31.77;;
6344;SDS011;3205;42.666;23.264;2023-02-28T06:59:13;73.13;;;29.73;;
6344;SDS011;3205;42.666;23.264;2023-02-28T07:01:39;84.37;;;32.13;;
6344;SDS011;3205;42.666;23.264;2023-02-28T07:04:06;80.97;;;30.00;;
6344;SDS011;3205;42.666;23.264;2023-02-28T07:06:32;78.70;;;30.63;;
6344;SDS011;3205;42.666;23.264;2023-02-28T07:08:59;79.77;;;28.57;;
6344;SDS011;3205;42.666;23.264;2023-02-28T07:11:26;85.50;;;32.27;;
6344;SDS011;3205;42.666;23.264;2023-02-28T07:13:53;86.50;;;31.03;;
6344;SDS011;3205;42.666;23.264;2023-02-28T07:16:20;89.37;;;31.53;;
6344;SDS011;3205;42.666;23.264;2023-02-28T07:18:47;83.97;;;32.87;;
6344;SDS011;3205;42.666;23.264;2023-02-28T07:21:14;93.50;;;33.77;;
6344;SDS011;3205;42.666;23.264;2023-02-28T07:23:41;86.73;;;32.40;;
6344;SDS011;3205;42.666;23.264;2023-02-28T07:26:07;88.87;;;33.90;;
6344;SDS011;3205;42.666;23.264;2023-02-28T07:28:39;95.37;;;34.23;;
6344;SDS011;3205;42.666;23.264;2023-02-28T07:31:06;91.57;;;32.73;;
6344;SDS011;3205;42.666;23.264;2023-02-28T07:33:33;76.67;;;33.13;;
6344;SDS011;3205;42.666;23.264;2023-02-28T07:36:00;97.23;;;34.33;;
6344;SDS011;3205;42.666;23.264;2023-02-28T07:38:28;85.03;;;31.07;;
6344;SDS011;3205;42.666;23.264;2023-02-28T07:40:54;97.30;;;33.77;;
6344;SDS011;3205;42.666;23.264;2023-02-28T07:43:20;88.97;;;33.33;;
6344;SDS011;3205;42.666;23.264;2023-02-28T07:45:46;85.27;;;32.30;;
6344;SDS011;3205;42.666;23.264;2023-02-28T07:48:12;89.97;;;32.43;;
6344;SDS011;3205;42.666;23.264;2023-02-28T07:50:38;95.83;;;34.13;;
6344;SDS011;3205;42.666;23.264;2023-02-28T07:53:04;79.67;;;33.00;;
6344;SDS011;3205;42.666;23.264;2023-02-28T07:55:31;89.77;;;33.93;;
6344;SDS011;3205;42.666;23.264;2023-02-28T07:57:57;95.00;;;33.37;;
6344;SDS011;3205;42.666;23.264;2023-02-28T08:00:25;95.03;;;35.13;;
6344;SDS011;3205;42.666;23.264;2023-02-28T08:02:51;89.27;;;32.63;;
6344;SDS011;3205;42.666;23.264;2023-02-28T08:05:17;95.00;;;34.37;;
6344;SDS011;3205;42.666;23.264;2023-02-28T08:07:43;94.03;;;34.97;;
6344;SDS011;3205;42.666;23.264;2023-02-28T08:10:10;95.57;;;34.30;;
6344;SDS011;3205;42.666;23.264;2023-02-28T08:12:37;85.87;;;33.40;;
6344;SDS011;3205;42.666;23.264;2023-02-28T08:15:03;85.63;;;32.50;;
6344;SDS011;3205;42.666;23.264;2023-02-28T08:17:29;81.90;;;32.57;;
6344;SDS011;3205;42.666;23.264;2023-02-28T08:19:56;74.87;;;31.10;;
6344;SDS011;3205;42.666;23.264;2023-02-28T08:22:22;92.33;;;32.97;;
6344;SDS011;3205;42.666;23.264;2023-02-28T08:24:48;83.93;;;33.27;;
6344;SDS011;3205;42.666;23.264;2023-02-28T08:27:14;79.27;;;31.93;;
6344;SDS011;3205;42.666;23.264;2023-02-28T08:29:41;83.60;;;30.60;;
6344;SDS011;3205;42.666;23.264;2023-02-28T08:32:07;94.20;;;32.03;;
6344;SDS011;3205;42.666;23.264;2023-02-28T08:34:33;101.40;;;35.00;;
6344;SDS011;3205;42.666;23.264;2023-02-28T08:36:59;94.10;;;32.53;;
6344;SDS011;3205;42.666;23.264;2023-02-28T08:39:25;88.80;;;32.43;;
6344;SDS011;3205;42.666;23.264;2023-02-28T08:41:51;89.30;;;32.63;;
6344;SDS011;3205;42.666;23.264;2023-02-28T08:44:17;92.53;;;31.23;;
6344;SDS011;3205;42.666;23.264;2023-02-28T08:46:44;97.90;;;35.00;;
6344;SDS011;3205;42.666;23.264;2023-02-28T08:49:10;83.70;;;32.47;;
6344;SDS011;3205;42.666;23.264;2023-02-28T08:51:38;86.50;;;33.50;;
6344;SDS011;3205;42.666;23.264;2023-02-28T08:54:04;93.77;;;34.07;;
6344;SDS011;3205;42.666;23.264;2023-02-28T08:56:30;87.80;;;34.50;;
6344;SDS011;3205;42.666;23.264;2023-02-28T08:58:56;88.43;;;32.80;;
6344;SDS011;3205;42.666;23.264;2023-02-28T09:01:23;88.17;;;33.93;;
6344;SDS011;3205;42.666;23.264;2023-02-28T09:03:52;78.73;;;32.13;;
6344;SDS011;3205;42.666;23.264;2023-02-28T09:06:20;82.40;;;31.90;;
6344;SDS011;3205;42.666;23.264;2023-02-28T09:08:47;93.37;;;34.13;;
6344;SDS011;3205;42.666;23.264;2023-02-28T09:11:15;80.00;;;32.73;;
6344;SDS011;3205;42.666;23.264;2023-02-28T09:13:42;83.07;;;31.97;;
6344;SDS011;3205;42.666;23.264;2023-02-28T09:16:10;67.20;;;31.47;;
6344;SDS011;3205;42.666;23.264;2023-02-28T09:18:37;84.40;;;31.50;;
6344;SDS011;3205;42.666;23.264;2023-02-28T09:21:05;81.23;;;33.97;;
6344;SDS011;3205;42.666;23.264;2023-02-28T09:23:32;85.97;;;33.70;;
6344;SDS011;3205;42.666;23.264;2023-02-28T09:25:58;94.90;;;35.37;;
6344;SDS011;3205;42.666;23.264;2023-02-28T09:28:24;91.00;;;35.40;;
6344;SDS011;3205;42.666;23.264;2023-02-28T09:30:51;92.20;;;34.83;;
6344;SDS011;3205;42.666;23.264;2023-02-28T09:33:20;106.97;;;39.97;;
6344;SDS011;3205;42.666;23.264;2023-02-28T09:35:47;95.07;;;36.00;;
6344;SDS011;3205;42.666;23.264;2023-02-28T09:38:14;83.17;;;34.73;;
6344;SDS011;3205;42.666;23.264;2023-02-28T09:40:44;82.97;;;33.13;;
6344;SDS011;3205;42.666;23.264;2023-02-28T09:43:14;80.77;;;32.63;;
6344;SDS011;3205;42.666;23.264;2023-02-28T09:45:42;82.83;;;33.20;;
6344;SDS011;3205;42.666;23.264;2023-02-28T09:48:14;87.27;;;32.27;;
6344;SDS011;3205;42.666;23.264;2023-02-28T09:50:45;94.53;;;32.20;;
6344;SDS011;3205;42.666;23.264;2023-02-28T09:53:16;67.93;;;29.90;;
6344;SDS011;3205;42.666;23.264;2023-02-28T09:55:48;75.43;;;31.63;;
6344;SDS011;3205;42.666;23.264;2023-02-28T09:58:18;73.53;;;30.73;;
6344;SDS011;3205;42.666;23.264;2023-02-28T10:00:54;75.53;;;31.50;;
6344;SDS011;3205;42.666;23.264;2023-02-28T10:03:26;72.03;;;33.20;;
6344;SDS011;3205;42.666;23.264;2023-02-28T10:05:59;70.20;;;30.97;;
6344;SDS011;3205;42.666;23.264;2023-02-28T10:08:31;62.97;;;30.97;;
6344;SDS011;3205;42.666;23.264;2023-02-28T10:11:09;77.83;;;30.97;;
6344;SDS011;3205;42.666;23.264;2023-02-28T10:13:40;80.83;;;31.73;;
6344;SDS011;3205;42.666;23.264;2023-02-28T10:16:16;75.93;;;32.33;;
6344;SDS011;3205;42.666;23.264;2023-02-28T10:18:49;78.13;;;34.67;;
6344;SDS011;3205;42.666;23.264;2023-02-28T10:21:19;79.87;;;33.67;;
6344;SDS011;3205;42.666;23.264;2023-02-28T10:23:49;61.07;;;31.13;;
6344;SDS011;3205;42.666;23.264;2023-02-28T10:26:22;69.60;;;32.00;;
6344;SDS011;3205;42.666;23.264;2023-02-28T10:28:51;72.83;;;32.30;;
6344;SDS011;3205;42.666;23.264;2023-02-28T10:31:19;79.60;;;35.07;;
6344;SDS011;3205;42.666;23.264;2023-02-28T10:33:45;69.50;;;31.30;;
6344;SDS011;3205;42.666;23.264;2023-02-28T10:36:13;76.00;;;32.67;;
6344;SDS011;3205;42.666;23.264;2023-02-28T10:38:42;72.73;;;32.50;;
6344;SDS011;3205;42.666;23.264;2023-02-28T10:41:11;76.60;;;33.07;;
6344;SDS011;3205;42.666;23.264;2023-02-28T10:43:40;73.40;;;31.93;;
6344;SDS011;3205;42.666;23.264;2023-02-28T10:46:11;64.07;;;32.43;;
6344;SDS011;3205;42.666;23.264;2023-02-28T10:48:57;52.63;;;25.93;;
6344;SDS011;3205;42.666;23.264;2023-02-28T10:51:33;48.10;;;24.03;;
6344;SDS011;3205;42.666;23.264;2023-02-28T10:54:01;40.40;;;18.90;;
6344;SDS011;3205;42.666;23.264;2023-02-28T10:56:30;43.37;;;16.63;;
6344;SDS011;3205;42.666;23.264;2023-02-28T10:58:56;30.50;;;14.07;;
6344;SDS011;3205;42.666;23.264;2023-02-28T11:01:25;20.47;;;9.47;;
6344;SDS011;3205;42.666;23.264;2023-02-28T11:04:01;22.00;;;9.27;;
6344;SDS011;3205;42.666;23.264;2023-02-28T11:06:29;34.13;;;11.40;;
6344;SDS011;3205;42.666;23.264;2023-02-28T11:08:57;29.10;;;10.27;;
6344;SDS011;3205;42.666;23.264;2023-02-28T11:11:26;31.77;;;12.33;;
6344;SDS011;3205;42.666;23.264;2023-02-28T11:13:55;32.77;;;12.07;;
6344;SDS011;3205;42.666;23.264;2023-02-28T11:16:31;26.70;;;12.47;;
6344;SDS011;3205;42.666;23.264;2023-02-28T11:19:00;32.63;;;12.67;;
6344;SDS011;3205;42.666;23.264;2023-02-28T11:21:27;35.40;;;12.10;;
6344;SDS011;3205;42.666;23.264;2023-02-28T11:23:58;35.87;;;12.83;;
6344;SDS011;3205;42.666;23.264;2023-02-28T11:26:36;17.23;;;8.33;;
6344;SDS011;3205;42.666;23.264;2023-02-28T11:29:10;30.43;;;10.77;;
6344;SDS011;3205;42.666;23.264;2023-02-28T11:32:05;35.83;;;13.50;;
6344;SDS011;3205;42.666;23.264;2023-02-28T11:34:39;26.53;;;11.73;;
6344;SDS011;3205;42.666;23.264;2023-02-28T11:37:09;38.00;;;12.97;;
6344;SDS011;3205;42.666;23.264;2023-02-28T11:39:38;29.77;;;12.70;;
6344;SDS011;3205;42.666;23.264;2023-02-28T11:42:07;31.03;;;12.27;;
6344;SDS011;3205;42.666;23.264;2023-02-28T11:44:51;35.20;;;11.87;;
6344;SDS011;3205;42.666;23.264;2023-02-28T11:47:31;34.63;;;12.63;;
6344;SDS011;3205;42.666;23.264;2023-02-28T11:50:15;33.90;;;12.80;;
6344;SDS011;3205;42.666;23.264;2023-02-28T11:52:48;34.00;;;11.30;;
6344;SDS011;3205;42.666;23.264;2023-02-28T11:55:19;23.40;;;10.07;;
6344;SDS011;3205;42.666;23.264;2023-02-28T11:57:57;35.70;;;11.47;;
6344;SDS011;3205;42.666;23.264;2023-02-28T12:03:32;27.87;;;13.00;;
6344;SDS011;3205;42.666;23.264;2023-02-28T12:06:12;37.47;;;12.23;;
6344;SDS011;3205;42.666;23.264;2023-02-28T12:08:46;34.57;;;13.63;;
6344;SDS011;3205;42.666;23.264;2023-02-28T12:11:22;33.23;;;13.00;;
6344;SDS011;3205;42.666;23.264;2023-02-28T12:13:58;39.43;;;13.77;;
6344;SDS011;3205;42.666;23.264;2023-02-28T12:16:46;28.40;;;13.17;;
6344;SDS011;3205;42.666;23.264;2023-02-28T12:19:21;31.07;;;12.70;;
6344;SDS011;3205;42.666;23.264;2023-02-28T12:22:06;31.33;;;13.73;;
6344;SDS011;3205;42.666;23.264;2023-02-28T12:27:46;19.27;;;8.27;;
6344;SDS011;3205;42.666;23.264;2023-02-28T12:30:15;25.43;;;12.27;;
6344;SDS011;3205;42.666;23.264;2023-02-28T12:32:46;21.60;;;9.00;;
6344;SDS011;3205;42.666;23.264;2023-02-28T12:35:17;32.47;;;12.50;;
6344;SDS011;3205;42.666;23.264;2023-02-28T12:37:49;34.87;;;13.80;;
6344;SDS011;3205;42.666;23.264;2023-02-28T12:40:22;16.57;;;8.60;;
6344;SDS011;3205;42.666;23.264;2023-02-28T12:42:51;34.43;;;14.70;;
6344;SDS011;3205;42.666;23.264;2023-02-28T12:45:23;29.13;;;13.57;;
6344;SDS011;3205;42.666;23.264;2023-02-28T12:47:52;24.30;;;10.17;;
6344;SDS011;3205;42.666;23.264;2023-02-28T12:50:23;28.67;;;13.20;;
6344;SDS011;3205;42.666;23.264;2023-02-28T12:52:51;34.63;;;11.70;;
6344;SDS011;3205;42.666;23.264;2023-02-28T12:55:23;29.67;;;10.57;;
6344;SDS011;3205;42.666;23.264;2023-02-28T12:57:58;20.63;;;9.70;;
6344;SDS011;3205;42.666;23.264;2023-02-28T13:00:34;17.33;;;9.23;;
6344;SDS011;3205;42.666;23.264;2023-02-28T13:03:12;33.83;;;14.93;;
6344;SDS011;3205;42.666;23.264;2023-02-28T13:09:01;38.37;;;12.37;;
6344;SDS011;3205;42.666;23.264;2023-02-28T13:11:31;32.57;;;13.53;;
6344;SDS011;3205;42.666;23.264;2023-02-28T13:14:00;34.67;;;12.70;;
6344;SDS011;3205;42.666;23.264;2023-02-28T13:16:28;29.07;;;11.80;;
6344;SDS011;3205;42.666;23.264;2023-02-28T13:19:17;31.23;;;12.60;;
6344;SDS011;3205;42.666;23.264;2023-02-28T13:21:49;30.60;;;13.97;;
6344;SDS011;3205;42.666;23.264;2023-02-28T13:24:36;24.67;;;9.77;;
6344;SDS011;3205;42.666;23.264;2023-02-28T13:27:11;29.07;;;12.30;;
6344;SDS011;3205;42.666;23.264;2023-02-28T13:29:50;28.30;;;12.63;;
6344;SDS011;3205;42.666;23.264;2023-02-28T13:32:28;26.30;;;12.93;;
6344;SDS011;3205;42.666;23.264;2023-02-28T13:44:05;30.77;;;10.17;;
6344;SDS011;3205;42.666;23.264;2023-02-28T13:46:33;29.70;;;12.63;;
6344;SDS011;3205;42.666;23.264;2023-02-28T13:49:19;21.40;;;9.50;;
6344;SDS011;3205;42.666;23.264;2023-02-28T13:51:51;29.50;;;11.03;;
6344;SDS011;3205;42.666;23.264;2023-02-28T13:54:26;24.00;;;10.13;;
6344;SDS011;3205;42.666;23.264;2023-02-28T13:57:04;23.63;;;7.43;;
6344;SDS011;3205;42.666;23.264;2023-02-28T13:59:46;23.57;;;9.83;;
6344;SDS011;3205;42.666;23.264;2023-02-28T14:02:26;20.60;;;7.83;;
6344;SDS011;3205;42.666;23.264;2023-02-28T14:05:05;22.93;;;9.27;;
6344;SDS011;3205;42.666;23.264;2023-02-28T14:07:38;25.53;;;7.97;;
6344;SDS011;3205;42.666;23.264;2023-02-28T14:10:15;25.30;;;9.87;;
6344;SDS011;3205;42.666;23.264;2023-02-28T14:12:53;23.30;;;8.93;;
6344;SDS011;3205;42.666;23.264;2023-02-28T14:15:34;28.70;;;9.60;;
6344;SDS011;3205;42.666;23.264;2023-02-28T14:18:06;32.60;;;10.70;;
6344;SDS011;3205;42.666;23.264;2023-02-28T14:20:44;21.13;;;6.37;;
6344;SDS011;3205;42.666;23.264;2023-02-28T14:23:15;24.40;;;10.43;;
6344;SDS011;3205;42.666;23.264;2023-02-28T14:25:48;19.13;;;9.87;;
6344;SDS011;3205;42.666;23.264;2023-02-28T14:28:26;27.13;;;9.50;;
6344;SDS011;3205;42.666;23.264;2023-02-28T14:31:09;21.53;;;9.10;;
6344;SDS011;3205;42.666;23.264;2023-02-28T14:33:54;25.20;;;8.77;;
6344;SDS011;3205;42.666;23.264;2023-02-28T14:36:31;30.37;;;10.33;;
6344;SDS011;3205;42.666;23.264;2023-02-28T14:38:59;28.20;;;11.50;;
6344;SDS011;3205;42.666;23.264;2023-02-28T14:41:31;17.90;;;6.13;;
6344;SDS011;3205;42.666;23.264;2023-02-28T14:44:01;18.27;;;8.67;;
6344;SDS011;3205;42.666;23.264;2023-02-28T14:46:30;14.70;;;7.13;;
6344;SDS011;3205;42.666;23.264;2023-02-28T14:49:03;26.77;;;9.70;;
6344;SDS011;3205;42.666;23.264;2023-02-28T14:51:30;25.40;;;9.27;;
6344;SDS011;3205;42.666;23.264;2023-02-28T14:53:58;28.53;;;10.10;;
6344;SDS011;3205;42.666;23.264;2023-02-28T14:56:27;31.77;;;11.27;;
6344;SDS011;3205;42.666;23.264;2023-02-28T14:58:59;22.57;;;8.10;;
6344;SDS011;3205;42.666;23.264;2023-02-28T15:01:26;18.73;;;7.63;;
6344;SDS011;3205;42.666;23.264;2023-02-28T15:04:00;21.10;;;8.93;;
6344;SDS011;3205;42.666;23.264;2023-02-28T15:06:28;22.47;;;8.67;;
6344;SDS011;3205;42.666;23.264;2023-02-28T15:09:09;28.30;;;10.40;;
6344;SDS011;3205;42.666;23.264;2023-02-28T15:11:37;35.80;;;14.40;;
6344;SDS011;3205;42.666;23.264;2023-02-28T15:14:05;32.20;;;10.53;;